Time;durP1;ratioP1;P1;durP2;ratioP2;P2;SDS_P1;SDS_P2;PMS_P1;PMS_P2;Temp;Humidity;BMP_temperature;BMP_pressure;BME280_temperature;BME280_humidity;BME280_pressure;Samples;Min_cycle;Max_cycle;Signal;HPM_P1;HPM_P2
2022/01/22 00:02:14;;;;;;;17.80;8.82;;;;;;;3.51;100.00;103357.56;5339011;28;20025;-84
2022/01/22 00:04:46;;;;;;;19.40;8.25;;;;;;;3.55;100.00;103346.91;5337621;28;20459;-84
2022/01/22 00:07:17;;;;;;;17.85;8.73;;;;;;;3.51;100.00;103354.94;5333546;27;20020;-84
2022/01/22 00:09:58;;;;;;;16.38;8.52;;;;;;;3.57;100.00;103352.13;5333611;28;20078;-84
2022/01/22 00:15:03;;;;;;;15.82;8.40;;;;;;;3.56;100.00;103346.00;5329289;27;20028;-85
2022/01/22 00:17:34;;;;;;;14.68;8.07;;;;;;;3.58;100.00;103345.97;5328275;27;20028;-85
2022/01/22 00:20:07;;;;;;;14.02;7.90;;;;;;;3.54;100.00;103349.56;5328939;27;20028;-85
2022/01/22 00:22:39;;;;;;;16.85;8.02;;;;;;;3.65;100.00;103342.28;5326937;27;20024;-85
2022/01/22 00:25:12;;;;;;;17.77;7.88;;;;;;;3.53;100.00;103339.94;5328181;27;20028;-84
2022/01/22 00:27:45;;;;;;;21.33;7.55;;;;;;;3.55;100.00;103338.13;5326503;27;20039;-85
2022/01/22 00:30:20;;;;;;;14.18;6.88;;;;;;;3.58;100.00;103338.06;5327058;28;20051;-84
2022/01/22 00:32:52;;;;;;;13.35;6.55;;;;;;;3.61;100.00;103332.69;5327981;28;20028;-85
2022/01/22 00:35:24;;;;;;;17.70;6.97;;;;;;;3.52;100.00;103330.25;5330490;27;20103;-85
2022/01/22 00:37:55;;;;;;;19.30;7.35;;;;;;;3.58;100.00;103322.22;5329552;27;20131;-86
2022/01/22 00:40:26;;;;;;;11.48;7.07;;;;;;;3.48;100.00;103310.13;5330537;27;20067;-84
2022/01/22 00:42:58;;;;;;;15.63;7.80;;;;;;;3.50;100.00;103322.38;5329108;28;20028;-85
2022/01/22 00:45:30;;;;;;;14.00;7.70;;;;;;;3.49;100.00;103325.94;5331647;27;20032;-85
2022/01/22 00:48:01;;;;;;;17.33;7.68;;;;;;;3.51;100.00;103325.91;5330159;27;20028;-85
2022/01/22 00:50:32;;;;;;;14.63;7.10;;;;;;;3.56;100.00;103306.41;5327694;28;20071;-85
2022/01/22 00:53:03;;;;;;;23.77;8.98;;;;;;;3.54;100.00;103326.69;5327239;27;20028;-85
2022/01/22 00:55:35;;;;;;;13.63;7.43;;;;;;;3.52;100.00;103314.44;5313595;28;20043;-85
2022/01/22 00:58:07;;;;;;;16.83;7.68;;;;;;;3.63;100.00;103325.63;5324776;28;20158;-85
2022/01/22 01:00:39;;;;;;;16.20;8.20;;;;;;;3.64;100.00;103332.63;5327440;27;20079;-85
2022/01/22 01:03:10;;;;;;;15.35;8.90;;;;;;;3.58;100.00;103333.63;5324319;27;20110;-85
2022/01/22 01:05:42;;;;;;;15.40;8.02;;;;;;;3.62;100.00;103333.56;5328165;27;20036;-85
2022/01/22 01:08:13;;;;;;;16.35;8.45;;;;;;;3.56;100.00;103327.53;5327359;27;20107;-85
2022/01/22 01:10:45;;;;;;;14.43;9.05;;;;;;;3.50;100.00;103325.00;5326374;27;20328;-85
2022/01/22 01:13:16;;;;;;;16.95;9.32;;;;;;;3.71;100.00;103350.03;5327384;28;20020;-85
2022/01/22 01:16:16;;;;;;;24.98;10.07;;;;;;;3.64;100.00;103347.59;5328671;27;20043;-85
2022/01/22 01:33:10;;;;;;;15.07;9.98;;;;;;;3.74;100.00;103331.50;5328616;28;20036;-84
2022/01/22 01:35:41;;;;;;;16.95;9.90;;;;;;;3.69;100.00;103337.78;5326833;27;20017;-85
2022/01/22 01:38:13;;;;;;;19.10;10.32;;;;;;;3.61;100.00;103335.31;5327591;27;20027;-85
2022/01/22 01:40:52;;;;;;;23.20;11.85;;;;;;;3.63;100.00;103338.81;5325786;28;20028;-85
2022/01/22 01:43:29;;;;;;;22.13;11.25;;;;;;;3.75;100.00;103343.81;5327887;27;20032;-85
2022/01/22 01:46:01;;;;;;;24.50;11.70;;;;;;;3.68;100.00;103339.56;5333632;27;20028;-85
2022/01/22 01:48:37;;;;;;;21.42;11.52;;;;;;;3.70;100.00;103344.78;5345029;27;20084;-84
2022/01/22 01:51:10;;;;;;;;;;;;;;;3.73;100.00;103350.88;5347138;27;20383;-85
2022/01/22 01:59:03;;;;;;;21.38;12.48;;;;;;;3.62;100.00;103342.34;5326463;28;20067;-85
2022/01/22 02:01:35;;;;;;;24.58;12.90;;;;;;;3.68;100.00;103333.41;5327861;27;20534;-85
2022/01/22 02:04:09;;;;;;;21.23;13.40;;;;;;;3.66;100.00;103320.25;5330719;27;20040;-85
2022/01/22 02:06:43;;;;;;;25.85;13.18;;;;;;;3.66;100.00;103328.16;5325108;28;20691;-85
2022/01/22 02:09:14;;;;;;;19.92;14.07;;;;;;;3.66;100.00;103327.31;5329932;28;20051;-86
2022/01/22 02:11:46;;;;;;;24.52;14.13;;;;;;;3.80;100.00;103338.38;5341051;27;20012;-84
2022/01/22 02:25:41;;;;;;;23.00;16.05;;;;;;;3.59;100.00;103327.47;5333806;28;20426;-85
2022/01/22 02:28:13;;;;;;;25.52;17.10;;;;;;;3.64;100.00;103334.41;5327972;27;20038;-85
2022/01/22 02:30:48;;;;;;;26.83;18.30;;;;;;;3.67;100.00;103329.06;5323530;28;20020;-85
2022/01/22 02:33:32;;;;;;;29.05;18.52;;;;;;;3.64;100.00;103327.34;5325875;28;20780;-85
2022/01/22 02:36:20;;;;;;;31.38;19.48;;;;;;;3.69;100.00;103335.16;5322931;28;20028;-85
2022/01/22 02:39:04;;;;;;;34.65;20.17;;;;;;;3.62;100.00;103334.44;5325517;27;20073;-85
2022/01/22 02:41:38;;;;;;;34.33;20.95;;;;;;;3.57;100.00;103331.88;5324831;27;20036;-85
2022/01/22 02:44:21;;;;;;;34.00;21.02;;;;;;;3.64;100.00;103337.88;5327203;28;20101;-85
2022/01/22 02:46:52;;;;;;;28.90;21.40;;;;;;;3.53;100.00;103324.94;5326226;27;20101;-85
2022/01/22 02:49:24;;;;;;;30.20;21.33;;;;;;;3.58;100.00;103338.06;5327581;27;20020;-85
2022/01/22 02:52:07;;;;;;;37.72;22.73;;;;;;;3.58;100.00;103340.69;5322908;28;20012;-85
2022/01/22 02:54:39;;;;;;;37.13;22.25;;;;;;;3.54;100.00;103339.91;5326411;28;20023;-86
2022/01/22 02:57:12;;;;;;;31.95;22.10;;;;;;;3.50;100.00;103332.06;5325687;28;20027;-85
2022/01/22 02:59:44;;;;;;;36.97;22.77;;;;;;;3.51;100.00;103339.97;5323970;28;20552;-85
2022/01/22 03:02:15;;;;;;;34.88;22.95;;;;;;;3.56;100.00;103329.31;5325312;27;20017;-85
2022/01/22 03:04:47;;;;;;;31.60;21.52;;;;;;;3.60;100.00;103342.38;5325794;28;20481;-85
2022/01/22 03:07:18;;;;;;;36.00;22.73;;;;;;;3.60;100.00;103346.78;5326220;27;20028;-85
2022/01/22 03:09:51;;;;;;;35.92;23.40;;;;;;;3.64;100.00;103347.59;5320684;27;20031;-85
2022/01/22 03:27:13;;;;;;;36.08;24.10;;;;;;;3.71;100.00;103338.63;5324525;27;20031;-85
2022/01/22 03:29:04;;;;;;;44.00;26.17;;;;;;;3.65;100.00;103347.56;5324785;27;20032;-86
2022/01/22 03:31:37;;;;;;;37.72;26.15;;;;;;;3.55;100.00;103336.34;5323311;27;20108;-85
2022/01/22 03:34:08;;;;;;;40.50;24.83;;;;;;;3.59;100.00;103339.78;5324474;27;20039;-85
2022/01/22 03:36:40;;;;;;;38.63;23.98;;;;;;;3.66;100.00;103343.13;5323399;27;20073;-85
2022/01/22 03:39:11;;;;;;;40.67;25.17;;;;;;;3.66;100.00;103336.06;5324333;28;20123;-85
2022/01/22 03:41:42;;;;;;;41.80;25.38;;;;;;;3.65;100.00;103342.28;5324102;27;20031;-86
2022/01/22 03:44:14;;;;;;;37.00;25.55;;;;;;;3.64;100.00;103331.75;5326844;27;20071;-85
2022/01/22 03:46:46;;;;;;;36.45;24.52;;;;;;;3.65;100.00;103344.91;5324379;28;20069;-85
2022/01/22 03:49:17;;;;;;;41.53;26.35;;;;;;;3.56;100.00;103335.44;5326063;27;20463;-85
2022/01/22 03:51:48;;;;;;;46.30;28.50;;;;;;;3.61;100.00;103340.59;5322935;28;20158;-85
2022/01/22 03:54:20;;;;;;;43.22;27.95;;;;;;;3.57;100.00;103333.66;5326209;27;20032;-85
2022/01/22 03:56:52;;;;;;;42.25;28.92;;;;;;;3.70;100.00;103340.41;5325342;27;20073;-85
2022/01/22 03:59:24;;;;;;;48.53;31.27;;;;;;;3.70;100.00;103348.31;5326201;27;20494;-86
2022/01/22 04:05:02;;;;;;;50.63;31.15;;;;;;;3.75;100.00;103330.59;5304280;28;20115;-85
2022/01/22 04:10:25;;;;;;;51.85;31.85;;;;;;;3.72;100.00;103346.50;5324582;27;20032;-85
2022/01/22 04:13:06;;;;;;;53.67;31.58;;;;;;;3.81;100.00;103337.50;5324811;28;20115;-85
2022/01/22 04:15:39;;;;;;;54.58;31.90;;;;;;;3.89;100.00;103345.22;5323405;27;20108;-85
2022/01/22 04:26:53;;;;;;;54.10;34.78;;;;;;;3.76;100.00;103332.31;5323610;27;20023;-86
2022/01/22 04:29:27;;;;;;;51.58;34.60;;;;;;;3.72;100.00;103329.81;5317207;28;20040;-86
2022/01/22 04:31:58;;;;;;;56.15;33.40;;;;;;;3.78;100.00;103338.41;5323050;27;20833;-85
2022/01/22 04:34:29;;;;;;;54.65;32.55;;;;;;;3.82;100.00;103336.56;5323883;27;20032;-86
2022/01/22 04:37:01;;;;;;;57.55;34.50;;;;;;;3.76;100.00;103323.53;5325279;27;20050;-86
2022/01/22 04:39:33;;;;;;;54.92;33.80;;;;;;;3.83;100.00;103333.03;5322954;28;20044;-85
2022/01/22 04:42:05;;;;;;;58.42;34.42;;;;;;;3.82;100.00;103327.78;5324341;27;20397;-85
2022/01/22 04:44:43;;;;;;;59.22;35.70;;;;;;;3.79;100.00;103334.88;5320892;28;20028;-85
2022/01/22 04:47:26;;;;;;;62.25;37.33;;;;;;;3.85;100.00;103338.28;5328742;27;20059;-85
2022/01/22 04:55:42;;;;;;;59.05;35.63;;;;;;;3.81;100.00;103340.13;5328329;28;20403;-85
2022/01/22 04:58:14;;;;;;;60.08;37.28;;;;;;;3.72;100.00;103330.66;5329184;27;20036;-85
2022/01/22 05:00:46;;;;;;;61.88;36.38;;;;;;;3.79;100.00;103334.03;5327656;27;20040;-85
2022/01/22 05:03:17;;;;;;;67.78;39.05;;;;;;;3.84;100.00;103333.91;5328919;27;20068;-84
2022/01/22 05:05:49;;;;;;;64.05;38.00;;;;;;;3.79;100.00;103326.97;5326117;27;20032;-85
2022/01/22 05:08:20;;;;;;;54.53;35.28;;;;;;;3.86;100.00;103342.69;5328821;27;20503;-86
2022/01/22 05:10:51;;;;;;;66.20;37.60;;;;;;;3.87;100.00;103334.69;5327589;27;20020;-85
2022/01/22 05:13:23;;;;;;;61.65;36.17;;;;;;;3.88;100.00;103340.88;5329415;27;20023;-85
2022/01/22 05:15:54;;;;;;;60.60;35.67;;;;;;;3.87;100.00;103329.41;5327923;27;20032;-85
2022/01/22 05:18:26;;;;;;;53.65;34.85;;;;;;;3.87;100.00;103336.47;5329013;27;20028;-86
2022/01/22 05:21:08;;;;;;;65.13;36.97;;;;;;;3.79;100.00;103326.13;5327553;28;20031;-85
2022/01/22 05:23:41;;;;;;;62.45;36.50;;;;;;;3.83;100.00;103332.19;5327656;27;20035;-85
2022/01/22 05:27:16;;;;;;;56.10;34.72;;;;;;;3.98;100.00;103337.09;5330770;27;20028;-86
2022/01/22 05:29:32;;;;;;;54.15;34.33;;;;;;;3.97;100.00;103330.06;5321453;27;20032;-86
2022/01/22 05:37:27;;;;;;;61.58;37.15;;;;;;;3.93;100.00;103325.78;5336030;27;20099;-85
2022/01/22 05:39:58;;;;;;;56.88;35.45;;;;;;;3.90;100.00;103325.84;5334908;28;20044;-85
2022/01/22 05:42:30;;;;;;;63.60;34.83;;;;;;;3.90;100.00;103320.56;5336274;28;20024;-85
2022/01/22 05:45:04;;;;;;;64.18;37.15;;;;;;;3.93;100.00;103331.91;5335309;27;28074;-84
2022/01/22 05:47:36;;;;;;;60.10;35.63;;;;;;;3.92;100.00;103330.16;5329769;27;20075;-85
2022/01/22 05:50:13;;;;;;;61.92;35.97;;;;;;;3.91;100.00;103327.56;5329666;27;20111;-85
2022/01/22 05:52:55;;;;;;;56.58;34.42;;;;;;;4.07;100.00;103331.56;5326298;27;20350;-86
2022/01/22 06:00:54;;;;;;;62.10;35.03;;;;;;;3.94;100.00;103340.69;5326867;27;20036;-85
2022/01/22 06:03:25;;;;;;;63.78;37.10;;;;;;;3.86;100.00;103322.41;5328193;27;20502;-85
2022/01/22 06:06:00;;;;;;;58.95;35.85;;;;;;;3.93;100.00;103349.53;5324374;27;20044;-85
2022/01/22 06:08:38;;;;;;;68.45;34.85;;;;;;;3.95;100.00;103342.44;5327550;27;20016;-85
2022/01/22 06:11:11;;;;;;;58.17;35.75;;;;;;;3.95;100.00;103348.56;5335363;27;20123;-86
2022/01/22 06:13:46;;;;;;;63.80;36.20;;;;;;;3.94;100.00;103353.91;5327862;27;20020;-86
2022/01/22 06:16:21;;;;;;;58.65;35.75;;;;;;;3.97;100.00;103353.81;5327619;28;20024;-85
2022/01/22 06:18:52;;;;;;;59.55;33.05;;;;;;;3.98;100.00;103343.22;5326552;28;20031;-85
2022/01/22 06:21:23;;;;;;;65.38;34.28;;;;;;;4.05;100.00;103349.22;5327409;27;20040;-85
2022/01/22 06:23:54;;;;;;;57.85;31.92;;;;;;;4.12;100.00;103347.28;5326781;27;20304;-85
2022/01/22 06:26:26;;;;;;;64.57;36.63;;;;;;;4.06;100.00;103347.44;5326460;28;20400;-86
2022/01/22 06:28:59;;;;;;;56.70;32.78;;;;;;;4.05;100.00;103341.31;5327011;27;20074;-85
2022/01/22 06:31:30;;;;;;;58.05;33.20;;;;;;;4.05;100.00;103337.78;5327706;27;20024;-86
2022/01/22 06:34:03;;;;;;;61.00;34.33;;;;;;;4.01;100.00;103341.41;5327839;27;20042;-86
2022/01/22 06:36:34;;;;;;;66.90;35.38;;;;;;;3.95;100.00;103338.00;5326903;28;20024;-85
2022/01/22 06:39:14;;;;;;;62.47;35.20;;;;;;;3.97;100.00;103343.25;5326048;27;20399;-83
2022/01/22 06:41:46;;;;;;;61.05;33.38;;;;;;;4.03;100.00;103345.72;5326102;27;20523;-84
2022/01/22 06:44:18;;;;;;;59.33;33.42;;;;;;;4.04;100.00;103352.78;5325950;28;20144;-84
2022/01/22 06:46:52;;;;;;;56.53;30.83;;;;;;;4.13;100.00;103351.66;5324275;28;20032;-84
2022/01/22 06:49:24;;;;;;;59.55;34.10;;;;;;;4.05;100.00;103364.19;5326710;27;20020;-84
2022/01/22 06:51:55;;;;;;;58.50;32.70;;;;;;;4.06;100.00;103366.78;5324980;28;20379;-85
2022/01/22 06:54:27;;;;;;;61.33;32.70;;;;;;;4.03;100.00;103353.66;5328627;28;20039;-84
2022/01/22 06:56:58;;;;;;;53.85;29.58;;;;;;;4.05;100.00;103365.06;5311264;28;20029;-85
2022/01/22 06:59:29;;;;;;;53.55;29.83;;;;;;;4.10;100.00;103357.03;5327294;27;20031;-85
2022/01/22 07:02:01;;;;;;;54.15;31.17;;;;;;;4.10;100.00;103367.59;5325161;28;28237;-85
2022/01/22 07:04:37;;;;;;;47.08;27.23;;;;;;;4.21;100.00;103369.94;5328114;27;20514;-85
2022/01/22 07:07:12;;;;;;;52.10;27.15;;;;;;;4.25;100.00;103364.56;5327166;27;20031;-85
2022/01/22 07:09:44;;;;;;;52.05;31.48;;;;;;;4.16;100.00;103362.16;5328352;27;20098;-85
2022/01/22 07:12:15;;;;;;;56.72;31.20;;;;;;;4.14;100.00;103367.47;5326429;28;20491;-85
2022/01/22 07:14:49;;;;;;;54.70;31.52;;;;;;;4.15;100.00;103371.88;5328557;27;20039;-85
2022/01/22 07:17:20;;;;;;;51.75;29.05;;;;;;;4.30;100.00;103390.88;5326097;28;20441;-84
2022/01/22 07:19:53;;;;;;;53.03;31.63;;;;;;;4.17;100.00;103390.28;5325808;28;20068;-84
2022/01/22 07:25:02;;;;;;;53.50;30.35;;;;;;;4.20;100.00;103403.44;5327006;27;20028;-85
2022/01/22 07:27:34;;;;;;;57.45;30.58;;;;;;;4.25;100.00;103405.97;5324871;28;20032;-84
2022/01/22 07:30:05;;;;;;;47.88;28.30;;;;;;;4.34;100.00;103396.03;5327145;27;20028;-84
2022/01/22 07:32:41;;;;;;;54.05;28.25;;;;;;;4.27;100.00;103402.38;5325483;27;20032;-85
2022/01/22 07:35:17;;;;;;;53.90;28.15;;;;;;;4.29;100.00;103408.47;5322341;28;20059;-85
2022/01/22 07:37:48;;;;;;;45.05;26.58;;;;;;;4.32;100.00;103403.13;5325595;27;20051;-85
2022/01/22 07:40:20;;;;;;;49.53;29.05;;;;;;;4.30;100.00;103391.72;5326116;28;20063;-85
2022/01/22 07:42:54;;;;;;;51.33;25.65;;;;;;;4.42;100.00;103409.06;5326486;27;20103;-85
2022/01/22 07:45:25;;;;;;;48.45;26.77;;;;;;;4.31;100.00;103398.75;5323237;27;20051;-85
2022/01/22 07:47:57;;;;;;;58.60;29.98;;;;;;;4.42;100.00;103416.09;5327244;27;20029;-84
2022/01/22 07:50:28;;;;;;;47.50;26.70;;;;;;;4.42;100.00;103409.06;5324505;28;20500;-84
2022/01/22 07:53:01;;;;;;;53.83;28.38;;;;;;;4.45;100.00;103406.34;5325780;27;20035;-84
2022/01/22 07:55:33;;;;;;;49.42;27.60;;;;;;;4.53;100.00;103406.13;5324822;27;20025;-85
2022/01/22 07:58:04;;;;;;;48.70;25.83;;;;;;;4.59;100.00;103405.94;5325020;28;20473;-85
2022/01/22 08:00:35;;;;;;;65.45;29.92;;;;;;;4.46;100.00;103402.78;5323420;27;20074;-84
2022/01/22 08:03:08;;;;;;;51.63;29.55;;;;;;;4.62;100.00;103408.53;5326412;27;20039;-85
2022/01/22 08:05:40;;;;;;;50.95;30.50;;;;;;;4.55;100.00;103405.16;5324549;27;20468;-85
2022/01/22 08:08:11;;;;;;;56.80;28.33;;;;;;;4.58;100.00;103409.53;5325894;27;20052;-84
2022/01/22 08:10:42;;;;;;;48.25;28.88;;;;;;;4.52;100.00;103399.09;5323275;28;20046;-84
2022/01/22 08:13:14;;;;;;;55.30;30.70;;;;;;;4.59;100.00;103403.31;5324255;28;20376;-84
2022/01/22 08:15:45;;;;;;;49.78;28.60;;;;;;;4.58;100.00;103401.59;5325557;27;20032;-84
2022/01/22 08:18:16;;;;;;;49.55;27.58;;;;;;;4.59;100.00;103402.44;5327933;28;20480;-85
2022/01/22 08:20:48;;;;;;;57.47;30.25;;;;;;;4.66;100.00;103399.63;5318014;28;20033;-85
2022/01/22 08:23:20;;;;;;;46.38;25.88;;;;;;;4.67;100.00;103400.47;5328007;27;20030;-84
2022/01/22 08:25:52;;;;;;;42.05;26.58;;;;;;;4.70;100.00;103406.53;5327784;27;20027;-85
2022/01/22 08:31:25;;;;;;;46.70;25.77;;;;;;;4.77;100.00;103398.44;5325831;27;20401;-85
2022/01/22 08:36:51;;;;;;;39.53;23.80;;;;;;;4.80;100.00;103393.06;5326177;27;20391;-85
2022/01/22 08:39:23;;;;;;;44.35;24.90;;;;;;;4.87;100.00;103391.97;5329331;27;20036;-84
2022/01/22 08:41:55;;;;;;;39.45;23.05;;;;;;;4.98;100.00;103407.53;5328729;28;20101;-84
2022/01/22 08:44:27;;;;;;;36.33;21.33;;;;;;;4.89;100.00;103382.22;5327346;28;20450;-84
2022/01/22 08:46:58;;;;;;;35.05;22.00;;;;;;;5.10;100.00;103400.16;5327174;27;20028;-85
2022/01/22 08:49:30;;;;;;;36.30;20.67;;;;;;;5.27;100.00;103397.00;5328329;27;20028;-85
2022/01/22 08:52:04;;;;;;;39.08;22.35;;;;;;;5.01;100.00;103381.00;5318839;28;20135;-85
2022/01/22 08:54:35;;;;;;;35.90;21.88;;;;;;;5.07;100.00;103396.72;5327454;28;20491;-84
2022/01/22 08:57:07;;;;;;;37.28;22.20;;;;;;;5.06;100.00;103385.25;5318683;27;20024;-85
2022/01/22 08:59:39;;;;;;;35.70;21.05;;;;;;;5.08;100.00;103390.50;5327653;28;20046;-85
2022/01/22 09:02:14;;;;;;;33.80;20.05;;;;;;;5.23;100.00;103408.59;5316407;28;20055;-85
2022/01/22 09:04:46;;;;;;;34.00;20.13;;;;;;;5.24;100.00;103406.78;5323310;28;20066;-85
2022/01/22 09:07:18;;;;;;;27.00;17.85;;;;;;;5.37;100.00;103417.91;5328498;27;20048;-85
2022/01/22 09:09:49;;;;;;;28.02;17.65;;;;;;;5.36;100.00;103418.81;5327305;27;20086;-84
2022/01/22 09:12:20;;;;;;;32.50;19.13;;;;;;;5.44;100.00;103438.84;5318973;28;20167;-85
2022/01/22 09:14:52;;;;;;;24.90;16.60;;;;;;;5.62;100.00;103433.91;5323216;28;20062;-85
2022/01/22 09:17:24;;;;;;;30.38;19.10;;;;;;;5.53;100.00;103435.06;5326743;28;20235;-85
2022/01/22 09:19:58;;;;;;;35.70;20.13;;;;;;;5.47;100.00;103432.63;5327886;27;20090;-85
2022/01/22 09:22:29;;;;;;;30.63;19.42;;;;;;;5.48;100.00;103436.97;5321885;27;20511;-85
2022/01/22 09:25:00;;;;;;;26.08;19.20;;;;;;;5.53;100.00;103431.56;5324904;28;20055;-85
2022/01/22 09:27:32;;;;;;;34.90;19.35;;;;;;;5.55;100.00;103435.88;5319460;28;20024;-85
2022/01/22 09:30:05;;;;;;;29.77;19.17;;;;;;;5.61;100.00;103442.75;5329214;27;20380;-85
2022/01/22 09:32:36;;;;;;;28.65;19.00;;;;;;;5.56;100.00;103428.78;5310500;28;20045;-85
2022/01/22 09:35:08;;;;;;;31.35;19.30;;;;;;;5.64;100.00;103429.44;5324999;27;20047;-85
2022/01/22 09:37:39;;;;;;;29.63;18.42;;;;;;;5.72;100.00;103440.66;5323909;28;20051;-84
2022/01/22 09:40:12;;;;;;;27.83;17.40;;;;;;;5.80;100.00;103429.81;5326864;28;20028;-85
2022/01/22 09:42:43;;;;;;;39.45;21.10;;;;;;;5.77;100.00;103445.84;5324927;28;20103;-85
2022/01/22 09:45:15;;;;;;;38.75;19.77;;;;;;;5.78;100.00;103455.50;5316713;28;20107;-84
2022/01/22 09:47:47;;;;;;;34.25;19.80;;;;;;;5.83;100.00;103459.72;5320627;27;20032;-85
2022/01/22 09:50:21;;;;;;;29.42;20.02;;;;;;;5.83;100.00;103469.47;5307033;28;20032;-85
2022/01/22 09:52:52;;;;;;;24.70;19.02;;;;;;;5.83;100.00;103466.81;5304609;28;20021;-85
2022/01/22 09:55:23;;;;;;;32.33;19.77;;;;;;;5.82;100.00;103468.59;5325029;28;20028;-85
2022/01/22 09:57:56;;;;;;;30.05;20.73;;;;;;;5.78;100.00;103458.16;5311202;28;20020;-85
2022/01/22 10:00:27;;;;;;;30.75;19.92;;;;;;;5.89;100.00;103464.00;5303479;28;20032;-86
2022/01/22 10:02:59;;;;;;;29.92;19.02;;;;;;;5.97;100.00;103466.44;5321417;28;20363;-85
2022/01/22 10:05:36;;;;;;;30.10;19.20;;;;;;;6.03;100.00;103474.16;5327218;28;20419;-85
2022/01/22 10:08:18;;;;;;;31.92;18.33;;;;;;;5.99;100.00;103454.84;5328358;27;20024;-85
2022/01/22 10:10:51;;;;;;;28.35;18.13;;;;;;;5.90;100.00;103452.47;5328405;27;20046;-85
2022/01/22 10:13:59;;;;;;;28.88;18.30;;;;;;;6.05;100.00;103469.72;5326628;28;20027;-85
2022/01/22 10:16:33;;;;;;;25.58;17.40;;;;;;;6.01;100.00;103465.41;5262650;28;20104;-84
2022/01/22 10:19:18;;;;;;;33.60;19.83;;;;;;;6.02;100.00;103464.50;5305293;28;20025;-84
2022/01/22 10:22:08;;;;;;;29.33;18.95;;;;;;;6.14;100.00;103465.91;5304929;28;20392;-85
2022/01/22 10:24:41;;;;;;;25.65;17.25;;;;;;;6.03;100.00;103471.50;5308232;28;20056;-85
2022/01/22 10:30:03;;;;;;;25.58;16.70;;;;;;;6.08;100.00;103459.00;5331979;27;20030;-85
2022/01/22 10:32:45;;;;;;;;;;;;;;;6.30;100.00;103463.63;5349855;27;20087;-84
2022/01/22 10:35:23;;;;;;;29.45;17.85;;;;;;;6.17;100.00;103465.78;5333100;27;19928;-84
2022/01/22 10:38:00;;;;;;;26.92;16.20;;;;;;;6.19;100.00;103469.28;5327843;27;20020;-84
2022/01/22 10:40:38;;;;;;;30.63;17.30;;;;;;;6.17;100.00;103466.66;5325874;27;20143;-85
2022/01/22 10:43:16;;;;;;;27.35;17.35;;;;;;;6.21;100.00;103462.13;5326136;28;20054;-85
2022/01/22 10:46:31;;;;;;;26.95;17.65;;;;;;;6.24;100.00;103462.00;5311719;28;20032;-85
2022/01/22 10:49:25;;;;;;;32.15;17.92;;;;;;;6.28;100.00;103463.66;5328218;27;20034;-84
2022/01/22 10:52:04;;;;;;;26.05;18.70;;;;;;;6.24;100.00;103473.50;5317138;27;20036;-85
2022/01/22 10:54:37;;;;;;;27.55;18.52;;;;;;;6.25;100.00;103467.25;5325860;28;20032;-86
2022/01/22 10:57:28;;;;;;;28.77;19.02;;;;;;;6.44;100.00;103467.53;5327708;27;20082;-85
2022/01/22 11:00:00;;;;;;;25.67;16.27;;;;;;;6.33;100.00;103463.50;5326723;27;20095;-85
2022/01/22 11:02:34;;;;;;;30.83;18.75;;;;;;;6.23;100.00;103470.91;5317536;27;20032;-85
2022/01/22 11:05:06;;;;;;;25.23;18.85;;;;;;;6.24;100.00;103473.50;5309897;28;20032;-86
2022/01/22 11:07:38;;;;;;;27.75;18.25;;;;;;;6.33;100.00;103472.34;5327579;27;20098;-85
2022/01/22 11:10:09;;;;;;;28.17;18.67;;;;;;;6.21;100.00;103468.28;5327199;27;20039;-86
2022/01/22 11:12:42;;;;;;;30.02;19.65;;;;;;;6.16;100.00;103458.75;5326012;28;20035;-85
2022/01/22 11:15:16;;;;;;;26.08;19.85;;;;;;;6.25;100.00;103469.06;5326049;27;20071;-85
2022/01/22 11:17:52;;;;;;;29.52;19.40;;;;;;;6.30;100.00;103458.31;5325157;28;20015;-86
2022/01/22 11:20:24;;;;;;;32.63;19.80;;;;;;;6.32;100.00;103459.97;5327518;27;20027;-85
2022/01/22 11:22:58;;;;;;;31.08;20.38;;;;;;;6.15;100.00;103446.41;5326982;27;20157;-86
2022/01/22 11:25:33;;;;;;;25.80;18.45;;;;;;;6.30;100.00;103447.72;5325161;28;20027;-85
2022/01/22 11:28:05;;;;;;;27.67;20.02;;;;;;;6.22;100.00;103430.28;5326947;27;20021;-86
2022/01/22 11:30:37;;;;;;;30.52;21.15;;;;;;;6.29;100.00;103435.34;5328544;27;20051;-86
2022/01/22 11:33:12;;;;;;;32.53;21.25;;;;;;;6.40;100.00;103447.34;5319928;28;20032;-86
2022/01/22 11:35:52;;;;;;;28.20;21.50;;;;;;;6.42;100.00;103447.28;5305549;28;20029;-86
2022/01/22 11:38:41;;;;;;;34.38;21.42;;;;;;;6.38;100.00;103451.84;5305822;28;20025;-87
2022/01/22 11:41:19;;;;;;;30.73;21.30;;;;;;;6.47;100.00;103450.66;5304835;28;20108;-85
2022/01/22 11:44:17;;;;;;;27.63;21.02;;;;;;;6.35;100.00;103436.03;5305552;28;20024;-85
2022/01/22 11:46:58;;;;;;;29.73;21.20;;;;;;;6.40;100.00;103439.38;5303226;28;20027;-85
2022/01/22 11:49:31;;;;;;;31.17;22.27;;;;;;;6.42;100.00;103437.56;5306499;28;20054;-85
2022/01/22 11:52:08;;;;;;;37.50;22.45;;;;;;;6.43;100.00;103446.38;5305164;28;20028;-85
2022/01/22 11:54:57;;;;;;;34.22;23.77;;;;;;;6.55;100.00;103445.94;5309005;28;20028;-85
2022/01/22 11:57:31;;;;;;;32.33;23.17;;;;;;;6.41;100.00;103438.47;5308598;28;20020;-85
2022/01/22 12:00:20;;;;;;;32.65;23.48;;;;;;;6.53;100.00;103445.13;5308293;28;20049;-85
2022/01/22 12:03:03;;;;;;;32.05;23.10;;;;;;;6.57;100.00;103444.13;5319012;28;20020;-85
2022/01/22 12:05:54;;;;;;;34.63;22.85;;;;;;;6.60;100.00;103436.03;5327401;28;20501;-85
2022/01/22 12:08:26;;;;;;;38.22;23.42;;;;;;;6.46;100.00;103433.00;5327973;28;20086;-85
2022/01/22 12:16:45;;;;;;;39.05;26.10;;;;;;;6.38;100.00;103429.75;5307612;28;20155;-85
2022/01/22 12:19:35;;;;;;;30.75;22.33;;;;;;;6.51;100.00;103444.31;5309407;28;20118;-85
2022/01/22 12:22:34;;;;;;;33.78;24.10;;;;;;;6.45;100.00;103439.22;5315806;28;20039;-85
2022/01/22 12:25:08;;;;;;;39.67;23.55;;;;;;;6.43;100.00;103444.59;5318082;28;20029;-84
2022/01/22 12:27:50;;;;;;;33.65;25.50;;;;;;;6.39;100.00;103450.03;5331860;27;20024;-86
2022/01/22 12:30:46;;;;;;;33.83;25.58;;;;;;;6.39;100.00;103452.69;5341212;27;20047;-84
2022/01/22 12:33:30;;;;;;;38.63;24.00;;;;;;;6.35;100.00;103454.59;5342021;27;20032;-85
2022/01/22 12:36:05;;;;;;;38.33;25.75;;;;;;;6.32;100.00;103448.53;5339241;27;20091;-85
2022/01/22 12:38:49;;;;;;;36.90;26.15;;;;;;;6.23;100.00;103447.03;5322440;28;20032;-85
2022/01/22 12:41:46;;;;;;;36.60;25.30;;;;;;;6.28;100.00;103450.41;5337210;27;20039;-86
2022/01/22 12:44:28;;;;;;;36.37;25.90;;;;;;;6.24;100.00;103432.84;5343429;28;20095;-86
2022/01/22 12:47:10;;;;;;;33.55;25.00;;;;;;;6.27;100.00;103446.00;5333093;27;20146;-85
2022/01/22 12:49:43;;;;;;;37.25;26.75;;;;;;;6.24;100.00;103446.09;5337967;27;20024;-85
2022/01/22 12:52:14;;;;;;;35.47;25.17;;;;;;;6.20;100.00;103450.63;5333043;27;20054;-85
2022/01/22 12:54:48;;;;;;;38.15;27.42;;;;;;;6.12;100.00;103450.03;5330743;27;20028;-86
2022/01/22 12:57:22;;;;;;;40.88;27.30;;;;;;;6.11;100.00;103455.38;5327900;27;20051;-86
2022/01/22 13:00:10;;;;;;;40.33;26.75;;;;;;;6.13;100.00;103450.91;5329447;28;20024;-86
2022/01/22 13:02:53;;;;;;;39.80;28.55;;;;;;;6.03;100.00;103448.56;5327750;27;20025;-86
2022/01/22 13:05:26;;;;;;;39.05;28.40;;;;;;;6.07;100.00;103451.97;5327698;27;20516;-86
2022/01/22 13:08:01;;;;;;;43.85;27.02;;;;;;;6.08;100.00;103452.81;5325971;27;20021;-85
2022/01/22 13:10:43;;;;;;;37.95;26.52;;;;;;;6.12;100.00;103455.34;5327652;28;20535;-85
2022/01/22 13:13:18;;;;;;;40.40;28.00;;;;;;;5.99;100.00;103449.53;5329122;28;20024;-86
2022/01/22 13:16:01;;;;;;;38.88;27.80;;;;;;;6.01;100.00;103454.81;5323189;28;20028;-86
2022/01/22 13:18:44;;;;;;;38.95;26.65;;;;;;;6.04;100.00;103449.41;5319127;28;20020;-86
2022/01/22 13:21:17;;;;;;;37.50;27.27;;;;;;;5.87;100.00;103448.16;5334831;27;20032;-85
2022/01/22 13:24:11;;;;;;;40.72;28.45;;;;;;;5.95;100.00;103441.72;5327418;27;20020;-85